createdAt,value
2023-11-20T00:00:32.361Z,9.70
2023-11-20T00:03:08.360Z,9.70
2023-11-20T00:05:44.346Z,9.70
2023-11-20T00:08:13.372Z,9.60
2023-11-20T00:10:43.828Z,9.60
2023-11-20T00:13:12.171Z,9.50
2023-11-20T00:15:40.476Z,9.40
2023-11-20T00:18:10.540Z,9.40
2023-11-20T00:20:39.592Z,9.40
2023-11-20T00:23:07.899Z,9.40
2023-11-20T00:25:36.232Z,9.40
2023-11-20T00:28:04.842Z,9.30
2023-11-20T00:30:33.108Z,9.30
2023-11-20T00:33:01.544Z,9.20
2023-11-20T00:35:31.292Z,9.20
2023-11-20T00:37:59.601Z,9.10
2023-11-20T00:40:28.245Z,9.00
2023-11-20T00:42:56.622Z,9.00
2023-11-20T00:45:26.973Z,9.00
2023-11-20T00:47:55.241Z,8.90
2023-11-20T00:50:23.451Z,8.90
2023-11-20T00:52:53.017Z,8.80
2023-11-20T00:55:21.209Z,8.80
2023-11-20T00:57:49.433Z,8.70
2023-11-20T01:00:19.839Z,8.70
2023-11-20T01:02:48.553Z,8.60
2023-11-20T01:05:17.436Z,8.60
2023-11-20T01:07:46.698Z,8.50
2023-11-20T01:10:16.359Z,8.50
2023-11-20T01:12:44.543Z,8.50
2023-11-20T01:15:12.970Z,8.50
2023-11-20T01:17:41.494Z,8.50
2023-11-20T01:20:12.459Z,8.50
2023-11-20T01:22:40.745Z,8.60
2023-11-20T01:25:10.103Z,8.60
2023-11-20T01:27:39.651Z,8.50
2023-11-20T01:30:10.617Z,8.50
2023-11-20T01:32:41.580Z,8.40
2023-11-20T01:35:10.632Z,8.30
2023-11-20T01:37:38.772Z,8.30
2023-11-20T01:40:08.496Z,8.30
2023-11-20T01:42:36.666Z,8.30
2023-11-20T01:45:08.614Z,8.30
2023-11-20T01:47:37.320Z,8.40
2023-11-20T01:50:07.211Z,8.30
2023-11-20T01:52:35.944Z,8.40
2023-11-20T01:55:04.323Z,8.40
2023-11-20T01:57:32.595Z,8.50
2023-11-20T02:00:00.873Z,8.50
2023-11-20T02:02:32.492Z,8.70
2023-11-20T02:05:00.803Z,8.60
2023-11-20T02:07:29.067Z,8.70
2023-11-20T02:09:57.812Z,8.80
2023-11-20T02:12:26.157Z,8.80
2023-11-20T02:14:54.556Z,8.80
2023-11-20T02:17:22.799Z,8.80
2023-11-20T02:19:53.489Z,8.80
2023-11-20T02:22:21.662Z,8.80
2023-11-20T02:24:50.344Z,8.80
2023-11-20T02:27:34.630Z,8.80
2023-11-20T02:30:07.016Z,8.70
2023-11-20T02:32:36.853Z,8.70
2023-11-20T02:35:05.841Z,8.70
2023-11-20T02:37:34.463Z,8.80
2023-11-20T02:40:04.039Z,8.80
2023-11-20T02:42:32.380Z,8.80
2023-11-20T02:45:00.591Z,8.80
2023-11-20T02:47:30.456Z,8.80
2023-11-20T02:49:58.809Z,8.80
2023-11-20T02:52:27.988Z,8.90
2023-11-20T02:54:56.275Z,8.80
2023-11-20T02:57:24.583Z,8.90
2023-11-20T02:59:52.786Z,8.90
2023-11-20T03:02:22.012Z,8.90
2023-11-20T03:04:55.954Z,9.00
2023-11-20T03:07:24.474Z,9.00
2023-11-20T03:09:53.069Z,9.10
2023-11-20T03:12:21.359Z,9.10
2023-11-20T03:14:49.636Z,9.20
2023-11-20T03:17:19.157Z,9.20
2023-11-20T03:19:47.447Z,9.30
2023-11-20T03:22:17.116Z,9.30
2023-11-20T03:24:45.452Z,9.30
2023-11-20T03:27:13.863Z,9.30
2023-11-20T03:29:42.064Z,9.30
2023-11-20T03:32:10.777Z,9.30
2023-11-20T03:34:38.276Z,9.30
2023-11-20T03:37:07.709Z,9.30
2023-11-20T03:39:37.296Z,9.30
2023-11-20T03:42:06.065Z,9.20
2023-11-20T03:44:34.740Z,9.20
2023-11-20T03:47:03.268Z,9.20
2023-11-20T03:49:31.632Z,9.20
2023-11-20T03:52:00.084Z,9.10
2023-11-20T03:54:28.581Z,9.20
2023-11-20T03:56:58.496Z,9.10
2023-11-20T03:59:28.709Z,9.10
2023-11-20T04:01:57.187Z,9.10
2023-11-20T04:04:25.576Z,9.10
2023-11-20T04:06:55.947Z,9.10
2023-11-20T04:09:24.241Z,9.10
2023-11-20T04:11:52.965Z,9.00
2023-11-20T04:14:22.729Z,9.10
2023-11-20T04:16:51.120Z,9.10
2023-11-20T04:19:19.945Z,9.20
2023-11-20T04:21:48.925Z,9.20
2023-11-20T04:24:17.665Z,9.20
2023-11-20T04:26:46.125Z,9.20
2023-11-20T04:29:14.700Z,9.20
2023-11-20T04:31:44.485Z,9.20
2023-11-20T04:34:13.035Z,9.20
2023-11-20T04:36:41.536Z,9.10
2023-11-20T04:39:12.231Z,9.10
2023-11-20T04:41:41.511Z,9.00
2023-11-20T04:44:09.676Z,9.00
2023-11-20T04:46:38.138Z,9.00
2023-11-20T04:49:07.977Z,9.00
2023-11-20T04:51:36.315Z,8.90
2023-11-20T04:54:04.926Z,8.90
2023-11-20T04:56:35.321Z,8.90
2023-11-20T04:59:03.709Z,8.90
2023-11-20T05:01:33.587Z,8.90
2023-11-20T05:04:02.403Z,9.00
2023-11-20T05:06:32.476Z,9.00
2023-11-20T05:09:00.908Z,9.00
2023-11-20T05:11:29.172Z,9.00
2023-11-20T05:14:00.643Z,9.00
2023-11-20T05:16:30.024Z,9.00
2023-11-20T05:18:58.588Z,9.00
2023-11-20T05:21:30.453Z,9.00
2023-11-20T05:24:03.319Z,9.00
2023-11-20T05:26:31.630Z,9.00
2023-11-20T05:28:59.806Z,9.00
2023-11-20T05:31:27.967Z,9.00
2023-11-20T05:33:57.146Z,9.00
2023-11-20T05:36:25.479Z,9.00
2023-11-20T05:38:53.578Z,9.00
2023-11-20T05:41:23.375Z,9.00
2023-11-20T05:43:51.521Z,9.10
2023-11-20T05:46:19.879Z,9.10
2023-11-20T05:48:48.535Z,9.00
2023-11-20T05:51:20.024Z,9.00
2023-11-20T05:53:48.801Z,9.00
2023-11-20T05:56:17.343Z,8.90
2023-11-20T05:59:05.163Z,8.90
2023-11-20T06:01:40.187Z,8.90
2023-11-20T06:04:10.481Z,8.90
2023-11-20T06:06:39.655Z,8.90
2023-11-20T06:09:11.370Z,8.90
2023-11-20T06:11:39.739Z,8.90
2023-11-20T06:14:09.356Z,8.90
2023-11-20T06:16:37.374Z,8.80
2023-11-20T06:19:05.445Z,8.80
2023-11-20T06:21:34.335Z,8.80
2023-11-20T06:24:02.920Z,8.80
2023-11-20T06:26:30.956Z,8.80
2023-11-20T06:28:59.044Z,8.80
2023-11-20T06:31:28.971Z,8.80
2023-11-20T06:33:57.220Z,8.80
2023-11-20T06:36:25.386Z,8.80
2023-11-20T06:38:56.048Z,8.80
2023-11-20T06:41:24.240Z,8.80
2023-11-20T06:43:55.000Z,8.80
2023-11-20T06:46:24.179Z,8.80
2023-11-20T06:48:58.682Z,8.80
2023-11-20T06:51:26.736Z,8.90
2023-11-20T06:53:56.795Z,8.90
2023-11-20T06:56:24.855Z,9.00
2023-11-20T06:58:53.118Z,9.00
2023-11-20T07:01:21.500Z,9.00
2023-11-20T07:03:49.779Z,9.00
2023-11-20T07:06:23.034Z,9.10
2023-11-20T07:08:52.989Z,9.10
2023-11-20T07:11:20.995Z,9.10
2023-11-20T07:13:49.026Z,9.10
2023-11-20T07:16:17.216Z,9.10
2023-11-20T07:18:45.491Z,9.10
2023-11-20T07:21:13.781Z,9.10
2023-11-20T07:23:43.304Z,9.10
2023-11-20T07:26:18.650Z,9.10
2023-11-20T07:29:01.357Z,9.10
2023-11-20T07:31:30.439Z,9.10
2023-11-20T07:33:59.069Z,9.10
2023-11-20T07:36:28.544Z,9.10
2023-11-20T07:38:57.982Z,9.20
2023-11-20T07:41:26.210Z,9.20
2023-11-20T07:43:54.206Z,9.20
2023-11-20T07:46:25.736Z,9.20
2023-11-20T07:48:55.423Z,9.30
2023-11-20T07:51:23.741Z,9.30
2023-11-20T07:53:51.819Z,9.40
2023-11-20T07:56:24.352Z,9.40
2023-11-20T07:58:57.807Z,9.50
2023-11-20T08:01:26.885Z,9.50
2023-11-20T08:03:55.061Z,9.60
2023-11-20T08:06:23.387Z,9.60
2023-11-20T08:08:51.567Z,9.60
2023-11-20T08:11:21.163Z,9.70
2023-11-20T08:13:49.215Z,9.80
2023-11-20T08:16:17.494Z,9.90
2023-11-20T08:18:45.598Z,9.90
2023-11-20T08:21:13.800Z,9.90
2023-11-20T08:23:42.019Z,9.90
2023-11-20T08:26:14.711Z,9.90
2023-11-20T08:28:44.807Z,10.00
2023-11-20T08:31:13.017Z,10.00
2023-11-20T08:33:41.252Z,9.90
2023-11-20T08:36:13.761Z,10.00
2023-11-20T08:39:13.710Z,10.00
2023-11-20T08:41:57.225Z,10.00
2023-11-20T08:44:27.117Z,10.00
2023-11-20T09:04:40.687Z,10.10
2023-11-20T09:07:11.195Z,10.20
2023-11-20T09:09:43.350Z,10.20
2023-11-20T09:12:11.985Z,10.20
2023-11-20T09:14:51.417Z,10.20
2023-11-20T09:17:25.728Z,10.30
2023-11-20T09:19:56.261Z,10.20
2023-11-20T09:22:26.554Z,10.20
2023-11-20T09:25:02.370Z,10.10
2023-11-20T09:27:33.871Z,10.10
2023-11-20T09:30:02.653Z,10.10
2023-11-20T09:32:31.449Z,10.20
2023-11-20T09:35:01.500Z,10.20
2023-11-20T09:37:34.239Z,10.20
2023-11-20T09:43:18.749Z,10.30
2023-11-20T09:45:58.902Z,10.40
2023-11-20T09:48:39.309Z,10.50
2023-11-20T09:51:14.071Z,10.60
2023-11-20T09:53:50.242Z,10.80
2023-11-20T09:56:27.785Z,10.80
2023-11-20T10:01:52.462Z,11.10
2023-11-20T10:04:25.624Z,11.10
2023-11-20T10:06:57.211Z,11.10
2023-11-20T10:09:35.959Z,11.10
2023-11-20T10:12:05.454Z,11.30
2023-11-20T10:14:34.254Z,11.30
2023-11-20T10:17:02.672Z,11.20
2023-11-20T10:19:31.258Z,11.30
2023-11-20T10:22:00.776Z,11.30
2023-11-20T10:24:31.102Z,11.20
2023-11-20T10:26:59.587Z,10.80
2023-11-20T10:29:28.239Z,10.80
2023-11-20T10:31:59.622Z,10.60
2023-11-20T10:34:33.081Z,10.50
2023-11-20T10:37:11.093Z,10.50
2023-11-20T10:39:41.224Z,10.50
2023-11-20T10:42:12.609Z,10.50
2023-11-20T10:44:41.181Z,10.50
2023-11-20T10:47:12.147Z,10.40
2023-11-20T10:49:44.708Z,10.40
2023-11-20T10:52:27.162Z,10.30
2023-11-20T10:55:02.192Z,10.20
2023-11-20T10:57:34.897Z,10.30
2023-11-20T11:00:11.393Z,10.40
2023-11-20T11:02:40.713Z,10.60
2023-11-20T11:05:10.729Z,10.80
2023-11-20T11:07:42.009Z,10.80
2023-11-20T11:10:13.066Z,10.90
2023-11-20T11:12:46.103Z,11.00
2023-11-20T11:15:15.592Z,11.10
2023-11-20T11:17:50.570Z,11.20
2023-11-20T11:20:26.784Z,11.30
2023-11-20T11:22:58.821Z,11.30
2023-11-20T11:25:31.632Z,11.50
2023-11-20T11:28:00.892Z,11.70
2023-11-20T11:30:38.174Z,11.80
2023-11-20T11:33:32.709Z,11.90
2023-11-20T11:36:21.734Z,12.10
2023-11-20T11:39:39.517Z,12.20
2023-11-20T11:50:43.056Z,12.20
2023-11-20T12:00:39.032Z,11.50
2023-11-20T12:11:21.896Z,11.30
2023-11-20T12:14:09.695Z,11.20
2023-11-20T12:16:38.665Z,11.10
2023-11-20T12:19:28.842Z,11.00
2023-11-20T12:21:58.183Z,10.80
2023-11-20T12:24:28.473Z,10.70
2023-11-20T12:29:44.945Z,10.50
2023-11-20T12:32:23.319Z,10.40
2023-11-20T12:34:51.687Z,10.40
2023-11-20T12:37:20.572Z,10.30
2023-11-20T12:40:25.429Z,10.20
2023-11-20T12:43:22.737Z,10.10
2023-11-20T13:04:20.619Z,10.20
2023-11-20T13:06:49.501Z,10.20
2023-11-20T13:09:41.297Z,10.30
2023-11-20T13:13:10.034Z,10.30
2023-11-20T13:15:54.645Z,10.30
2023-11-20T13:18:49.776Z,10.20
2023-11-20T13:21:37.286Z,10.00
2023-11-20T13:24:08.562Z,9.80
2023-11-20T13:26:44.848Z,9.70
2023-11-20T13:29:13.886Z,9.60
2023-11-20T13:31:44.112Z,9.60
2023-11-20T13:34:14.435Z,9.50
2023-11-20T13:36:43.118Z,9.40
2023-11-20T13:39:20.600Z,9.40
2023-11-20T13:41:51.477Z,9.40
2023-11-20T13:44:28.770Z,9.40
2023-11-20T13:47:00.277Z,9.50
2023-11-20T13:49:30.595Z,9.50
2023-11-20T13:52:02.281Z,9.40
2023-11-20T13:54:30.563Z,9.50
2023-11-20T13:56:58.765Z,9.50
2023-11-20T13:59:27.539Z,9.50
2023-11-20T14:18:21.977Z,9.70
2023-11-20T14:35:37.564Z,9.70
2023-11-20T14:38:09.134Z,9.50
2023-11-20T15:00:28.874Z,9.70
2023-11-20T15:03:26.425Z,9.70
2023-11-20T15:10:23.330Z,9.60
2023-11-20T17:43:11.873Z,7.00
2023-11-20T17:45:51.360Z,7.00
2023-11-20T17:48:47.509Z,7.10
2023-11-20T17:51:17.727Z,7.20
2023-11-20T17:54:13.891Z,7.30
2023-11-20T18:05:01.220Z,7.60
2023-11-20T18:21:46.048Z,8.00
2023-11-20T18:25:07.398Z,8.00
2023-11-20T18:28:34.323Z,8.00
2023-11-20T18:46:02.720Z,8.00
2023-11-20T19:00:11.523Z,7.80
2023-11-20T19:02:48.870Z,7.70
2023-11-20T19:12:33.417Z,7.60
2023-11-20T19:21:15.792Z,7.60
2023-11-20T19:23:45.109Z,7.60
2023-11-20T19:26:23.799Z,7.60
2023-11-20T19:28:58.736Z,7.60
2023-11-20T19:31:37.677Z,7.60
2023-11-20T19:34:06.108Z,7.70
2023-11-20T19:36:36.964Z,7.70
2023-11-20T19:39:05.363Z,7.70
2023-11-20T19:41:33.627Z,7.70
2023-11-20T19:44:02.031Z,7.80
2023-11-20T19:46:32.493Z,7.80
2023-11-20T19:49:01.619Z,7.90
2023-11-20T19:51:33.107Z,7.90
2023-11-20T19:54:02.012Z,8.00
2023-11-20T19:56:30.225Z,8.10
2023-11-20T19:59:00.282Z,8.10
2023-11-20T20:01:28.759Z,8.10
2023-11-20T20:04:02.793Z,8.10
2023-11-20T20:06:36.268Z,8.10
2023-11-20T20:12:02.013Z,7.80
2023-11-20T20:14:32.436Z,7.80
2023-11-20T20:17:06.005Z,7.70
2023-11-20T20:19:42.001Z,7.60
2023-11-20T20:22:10.254Z,7.50
2023-11-20T20:24:38.504Z,7.50
2023-11-20T20:27:07.401Z,7.40
2023-11-20T20:29:35.924Z,7.40
2023-11-20T20:32:04.987Z,7.30
2023-11-20T20:34:33.392Z,7.30
2023-11-20T20:37:03.811Z,7.40
2023-11-20T20:39:32.083Z,7.40
2023-11-20T20:42:00.200Z,7.30
2023-11-20T20:44:28.308Z,7.20
2023-11-20T20:46:56.500Z,7.30
2023-11-20T20:49:24.640Z,7.30
2023-11-20T20:51:52.757Z,7.30
2023-11-20T20:54:22.336Z,7.30
2023-11-20T20:56:50.529Z,7.40
2023-11-20T20:59:18.714Z,7.40
2023-11-20T21:01:47.960Z,7.60
2023-11-20T21:04:16.347Z,7.60
2023-11-20T21:06:44.619Z,7.60
2023-11-20T21:09:31.341Z,7.60
2023-11-20T21:12:01.089Z,7.50
2023-11-20T21:14:31.948Z,7.50
2023-11-20T21:17:00.249Z,7.60
2023-11-20T21:19:29.930Z,7.60
2023-11-20T21:21:58.417Z,7.60
2023-11-20T21:24:29.099Z,7.60
2023-11-20T21:26:57.400Z,7.70
2023-11-20T21:29:31.414Z,7.70
2023-11-20T21:32:09.202Z,7.70
2023-11-20T21:34:39.003Z,7.60
2023-11-20T21:37:08.137Z,7.60
2023-11-20T21:39:36.402Z,7.60
2023-11-20T21:42:04.916Z,7.50
2023-11-20T21:44:37.646Z,7.50
2023-11-20T21:47:09.473Z,7.50
2023-11-20T21:49:37.692Z,7.50
2023-11-20T21:52:06.556Z,7.40
2023-11-20T21:54:34.868Z,7.50
2023-11-20T21:57:03.257Z,7.50
2023-11-20T21:59:31.516Z,7.50
2023-11-20T22:02:01.386Z,7.40
2023-11-20T22:04:32.780Z,7.40
2023-11-20T22:07:01.166Z,7.40
2023-11-20T22:09:32.106Z,7.40
2023-11-20T22:12:00.426Z,7.50
2023-11-20T22:14:56.986Z,7.50
2023-11-20T22:17:29.017Z,7.40
2023-11-20T22:19:57.961Z,7.40
2023-11-20T22:22:28.780Z,7.30
2023-11-20T22:24:57.709Z,7.20
2023-11-20T22:27:26.600Z,7.00
2023-11-20T22:29:58.388Z,7.00
2023-11-20T22:32:31.450Z,7.00
2023-11-20T22:35:13.780Z,7.00
2023-11-20T22:37:53.376Z,7.00
2023-11-20T22:40:29.757Z,6.90
2023-11-20T22:43:01.750Z,6.90
2023-11-20T22:45:30.328Z,6.80
2023-11-20T22:48:00.535Z,6.80
2023-11-20T22:50:28.860Z,6.80
2023-11-20T22:52:57.119Z,6.80
2023-11-20T22:55:25.586Z,6.80
2023-11-20T22:57:54.217Z,6.80
2023-11-20T23:00:26.667Z,6.90
2023-11-20T23:02:55.246Z,6.90
2023-11-20T23:05:25.219Z,6.90
2023-11-20T23:07:53.768Z,6.90
2023-11-20T23:10:22.244Z,6.90
2023-11-20T23:12:50.879Z,6.90
2023-11-20T23:15:19.479Z,6.90
2023-11-20T23:17:52.217Z,6.80
2023-11-20T23:20:23.154Z,6.80
2023-11-20T23:22:54.483Z,6.80
2023-11-20T23:25:23.103Z,6.80
2023-11-20T23:27:51.759Z,6.80
2023-11-20T23:30:22.749Z,6.80
2023-11-20T23:32:51.668Z,6.90
2023-11-20T23:35:20.369Z,6.90
2023-11-20T23:37:48.787Z,6.90
2023-11-20T23:40:19.131Z,6.90
2023-11-20T23:42:47.675Z,6.90
2023-11-20T23:45:16.162Z,6.90
2023-11-20T23:47:44.753Z,7.00
2023-11-20T23:50:13.213Z,6.90
2023-11-20T23:52:41.606Z,6.90
2023-11-20T23:55:10.435Z,7.00
2023-11-20T23:57:39.994Z,7.00
